sensor_id;sensor_type;location;lat;lon;timestamp;pressure;altitude;pressure_sealevel;temperature;humidity
32131;BME280;18639;50.716;7.086;2023-07-31T00:01:46;100074.50;;;18.03;100.00
32131;BME280;18639;50.716;7.086;2023-07-31T00:04:12;100061.44;;;18.03;100.00
32131;BME280;18639;50.716;7.086;2023-07-31T00:06:37;100060.34;;;18.14;100.00
32131;BME280;18639;50.716;7.086;2023-07-31T00:09:02;100085.91;;;18.20;100.00
32131;BME280;18639;50.716;7.086;2023-07-31T00:11:28;100085.09;;;18.19;100.00
32131;BME280;18639;50.716;7.086;2023-07-31T00:13:53;100055.44;;;18.11;100.00
32131;BME280;18639;50.716;7.086;2023-07-31T00:16:19;100062.00;;;18.15;100.00
32131;BME280;18639;50.716;7.086;2023-07-31T00:18:44;100053.63;;;18.11;100.00
32131;BME280;18639;50.716;7.086;2023-07-31T00:21:09;100029.19;;;17.94;100.00
32131;BME280;18639;50.716;7.086;2023-07-31T00:23:34;100053.44;;;18.04;100.00
32131;BME280;18639;50.716;7.086;2023-07-31T00:26:00;100076.72;;;18.16;100.00
32131;BME280;18639;50.716;7.086;2023-07-31T00:28:25;100076.38;;;18.11;100.00
32131;BME280;18639;50.716;7.086;2023-07-31T00:30:50;100074.06;;;18.07;100.00
32131;BME280;18639;50.716;7.086;2023-07-31T00:33:16;100079.34;;;18.16;100.00
32131;BME280;18639;50.716;7.086;2023-07-31T00:35:41;99998.25;;;17.64;100.00
32131;BME280;18639;50.716;7.086;2023-07-31T00:38:06;100038.63;;;17.87;100.00
32131;BME280;18639;50.716;7.086;2023-07-31T00:40:35;100058.81;;;18.03;100.00
32131;BME280;18639;50.716;7.086;2023-07-31T00:43:03;100074.72;;;18.09;100.00
32131;BME280;18639;50.716;7.086;2023-07-31T00:45:29;100090.63;;;18.16;100.00
32131;BME280;18639;50.716;7.086;2023-07-31T00:47:54;100093.69;;;18.12;100.00
32131;BME280;18639;50.716;7.086;2023-07-31T00:50:22;100080.25;;;18.06;100.00
32131;BME280;18639;50.716;7.086;2023-07-31T00:52:47;100090.91;;;18.13;100.00
32131;BME280;18639;50.716;7.086;2023-07-31T00:55:13;100067.13;;;17.98;100.00
32131;BME280;18639;50.716;7.086;2023-07-31T00:57:41;100095.66;;;18.09;100.00
32131;BME280;18639;50.716;7.086;2023-07-31T01:00:09;100099.59;;;18.14;100.00
32131;BME280;18639;50.716;7.086;2023-07-31T01:02:35;100100.88;;;18.09;100.00
32131;BME280;18639;50.716;7.086;2023-07-31T01:05:01;100088.44;;;18.12;100.00
32131;BME280;18639;50.716;7.086;2023-07-31T01:07:49;100082.25;;;18.13;100.00
32131;BME280;18639;50.716;7.086;2023-07-31T01:10:26;100079.00;;;18.11;100.00
32131;BME280;18639;50.716;7.086;2023-07-31T01:12:56;100081.59;;;18.11;100.00
32131;BME280;18639;50.716;7.086;2023-07-31T01:15:21;100072.41;;;18.06;100.00
32131;BME280;18639;50.716;7.086;2023-07-31T01:17:47;100061.28;;;18.04;100.00
32131;BME280;18639;50.716;7.086;2023-07-31T01:20:23;100069.63;;;18.08;100.00
32131;BME280;18639;50.716;7.086;2023-07-31T01:28:13;100054.72;;;18.00;100.00
32131;BME280;18639;50.716;7.086;2023-07-31T01:30:44;100075.84;;;18.07;100.00
32131;BME280;18639;50.716;7.086;2023-07-31T01:33:14;100024.16;;;17.75;100.00
32131;BME280;18639;50.716;7.086;2023-07-31T01:35:43;100033.78;;;17.75;100.00
32131;BME280;18639;50.716;7.086;2023-07-31T01:38:08;100055.13;;;17.88;100.00
32131;BME280;18639;50.716;7.086;2023-07-31T01:40:34;100058.94;;;17.93;100.00
32131;BME280;18639;50.716;7.086;2023-07-31T01:42:59;100046.75;;;17.84;100.00
32131;BME280;18639;50.716;7.086;2023-07-31T01:45:24;99987.19;;;17.52;100.00
32131;BME280;18639;50.716;7.086;2023-07-31T01:47:50;100051.97;;;17.84;100.00
32131;BME280;18639;50.716;7.086;2023-07-31T01:50:15;100057.06;;;17.86;100.00
32131;BME280;18639;50.716;7.086;2023-07-31T01:52:40;100056.25;;;17.85;100.00
32131;BME280;18639;50.716;7.086;2023-07-31T01:55:06;100052.16;;;17.83;100.00
32131;BME280;18639;50.716;7.086;2023-07-31T01:57:31;100066.25;;;17.90;100.00
32131;BME280;18639;50.716;7.086;2023-07-31T01:59:56;100026.03;;;17.65;100.00
32131;BME280;18639;50.716;7.086;2023-07-31T02:02:22;100052.50;;;17.88;100.00
32131;BME280;18639;50.716;7.086;2023-07-31T02:04:48;100031.03;;;17.76;100.00
32131;BME280;18639;50.716;7.086;2023-07-31T02:07:13;100002.44;;;17.57;100.00
32131;BME280;18639;50.716;7.086;2023-07-31T02:09:39;100016.56;;;17.64;100.00
32131;BME280;18639;50.716;7.086;2023-07-31T02:12:04;100027.44;;;17.77;100.00
32131;BME280;18639;50.716;7.086;2023-07-31T02:14:30;100035.94;;;17.79;100.00
32131;BME280;18639;50.716;7.086;2023-07-31T02:16:55;100037.78;;;17.87;100.00
32131;BME280;18639;50.716;7.086;2023-07-31T02:19:20;100036.28;;;17.84;100.00
32131;BME280;18639;50.716;7.086;2023-07-31T02:21:46;99997.97;;;17.67;100.00
32131;BME280;18639;50.716;7.086;2023-07-31T02:24:11;100026.38;;;17.88;100.00
32131;BME280;18639;50.716;7.086;2023-07-31T02:26:36;100024.88;;;17.85;100.00
32131;BME280;18639;50.716;7.086;2023-07-31T02:29:01;99990.63;;;17.71;100.00
32131;BME280;18639;50.716;7.086;2023-07-31T02:31:27;100016.19;;;17.85;100.00
32131;BME280;18639;50.716;7.086;2023-07-31T02:33:52;99950.06;;;17.41;100.00
32131;BME280;18639;50.716;7.086;2023-07-31T02:36:17;100009.50;;;17.82;100.00
32131;BME280;18639;50.716;7.086;2023-07-31T02:38:43;100011.81;;;17.85;100.00
32131;BME280;18639;50.716;7.086;2023-07-31T02:41:08;100007.84;;;17.81;100.00
32131;BME280;18639;50.716;7.086;2023-07-31T02:43:33;99945.19;;;17.46;100.00
32131;BME280;18639;50.716;7.086;2023-07-31T02:45:59;99993.50;;;17.85;100.00
32131;BME280;18639;50.716;7.086;2023-07-31T02:48:24;100000.09;;;17.89;100.00
32131;BME280;18639;50.716;7.086;2023-07-31T02:50:50;99993.69;;;17.84;100.00
32131;BME280;18639;50.716;7.086;2023-07-31T02:53:15;99992.38;;;17.88;100.00
32131;BME280;18639;50.716;7.086;2023-07-31T02:55:40;99973.66;;;17.75;100.00
32131;BME280;18639;50.716;7.086;2023-07-31T02:58:06;99993.81;;;17.82;100.00
32131;BME280;18639;50.716;7.086;2023-07-31T03:00:31;100007.25;;;17.87;100.00
32131;BME280;18639;50.716;7.086;2023-07-31T03:02:56;100003.50;;;17.90;100.00
32131;BME280;18639;50.716;7.086;2023-07-31T03:05:21;99961.53;;;17.65;100.00
32131;BME280;18639;50.716;7.086;2023-07-31T03:07:47;99993.13;;;17.80;100.00
32131;BME280;18639;50.716;7.086;2023-07-31T03:10:12;99953.84;;;17.64;100.00
32131;BME280;18639;50.716;7.086;2023-07-31T03:12:37;99946.56;;;17.58;100.00
32131;BME280;18639;50.716;7.086;2023-07-31T03:15:03;99980.59;;;17.84;100.00
32131;BME280;18639;50.716;7.086;2023-07-31T03:17:29;99948.31;;;17.67;100.00
32131;BME280;18639;50.716;7.086;2023-07-31T03:19:54;99941.09;;;17.61;100.00
32131;BME280;18639;50.716;7.086;2023-07-31T03:22:19;99986.47;;;17.86;100.00
32131;BME280;18639;50.716;7.086;2023-07-31T03:24:44;99980.97;;;17.89;100.00
32131;BME280;18639;50.716;7.086;2023-07-31T03:27:10;99927.91;;;17.53;100.00
32131;BME280;18639;50.716;7.086;2023-07-31T03:29:35;99935.72;;;17.62;100.00
32131;BME280;18639;50.716;7.086;2023-07-31T03:32:00;99949.78;;;17.70;100.00
32131;BME280;18639;50.716;7.086;2023-07-31T03:34:26;99951.31;;;17.80;100.00
32131;BME280;18639;50.716;7.086;2023-07-31T03:36:51;99924.13;;;17.65;100.00
32131;BME280;18639;50.716;7.086;2023-07-31T03:39:16;99921.50;;;17.65;100.00
32131;BME280;18639;50.716;7.086;2023-07-31T03:41:41;99933.28;;;17.69;100.00
32131;BME280;18639;50.716;7.086;2023-07-31T03:44:07;99907.69;;;17.55;100.00
32131;BME280;18639;50.716;7.086;2023-07-31T03:46:32;99925.16;;;17.72;100.00
32131;BME280;18639;50.716;7.086;2023-07-31T03:48:59;99927.28;;;17.77;100.00
32131;BME280;18639;50.716;7.086;2023-07-31T03:51:24;99953.66;;;17.91;100.00
32131;BME280;18639;50.716;7.086;2023-07-31T03:53:49;99933.69;;;17.82;100.00
32131;BME280;18639;50.716;7.086;2023-07-31T03:56:14;99909.13;;;17.67;100.00
32131;BME280;18639;50.716;7.086;2023-07-31T03:58:40;99952.69;;;17.92;100.00
32131;BME280;18639;50.716;7.086;2023-07-31T04:01:05;99925.44;;;17.69;100.00
32131;BME280;18639;50.716;7.086;2023-07-31T04:03:30;99903.06;;;17.66;100.00
32131;BME280;18639;50.716;7.086;2023-07-31T04:05:56;99898.19;;;17.72;100.00
32131;BME280;18639;50.716;7.086;2023-07-31T04:08:22;99952.91;;;17.99;100.00
32131;BME280;18639;50.716;7.086;2023-07-31T04:10:47;99932.91;;;17.90;100.00
32131;BME280;18639;50.716;7.086;2023-07-31T04:13:13;99922.28;;;17.83;100.00
32131;BME280;18639;50.716;7.086;2023-07-31T04:15:38;99946.03;;;17.98;100.00
32131;BME280;18639;50.716;7.086;2023-07-31T04:18:04;99947.69;;;17.99;100.00
32131;BME280;18639;50.716;7.086;2023-07-31T04:20:30;99937.69;;;17.94;100.00
32131;BME280;18639;50.716;7.086;2023-07-31T04:22:55;99949.13;;;18.01;100.00
32131;BME280;18639;50.716;7.086;2023-07-31T04:25:20;99953.06;;;17.97;100.00
32131;BME280;18639;50.716;7.086;2023-07-31T04:27:46;99938.84;;;18.00;100.00
32131;BME280;18639;50.716;7.086;2023-07-31T04:30:11;99924.53;;;17.78;100.00
32131;BME280;18639;50.716;7.086;2023-07-31T04:32:36;99903.91;;;17.75;100.00
32131;BME280;18639;50.716;7.086;2023-07-31T04:35:02;99944.22;;;17.98;100.00
32131;BME280;18639;50.716;7.086;2023-07-31T04:37:27;99931.78;;;17.92;100.00
32131;BME280;18639;50.716;7.086;2023-07-31T04:39:52;99922.91;;;17.85;100.00
32131;BME280;18639;50.716;7.086;2023-07-31T04:42:19;99942.13;;;18.02;100.00
32131;BME280;18639;50.716;7.086;2023-07-31T04:44:44;99903.41;;;17.72;100.00
32131;BME280;18639;50.716;7.086;2023-07-31T04:47:09;99937.00;;;17.92;100.00
32131;BME280;18639;50.716;7.086;2023-07-31T04:49:35;99937.50;;;17.96;100.00
32131;BME280;18639;50.716;7.086;2023-07-31T04:52:00;99939.47;;;17.94;100.00
32131;BME280;18639;50.716;7.086;2023-07-31T04:54:25;99921.00;;;17.95;100.00
32131;BME280;18639;50.716;7.086;2023-07-31T04:56:51;99919.88;;;17.98;100.00
32131;BME280;18639;50.716;7.086;2023-07-31T04:59:17;99931.03;;;18.08;100.00
32131;BME280;18639;50.716;7.086;2023-07-31T05:01:42;99925.31;;;18.13;100.00
32131;BME280;18639;50.716;7.086;2023-07-31T05:04:08;99861.78;;;17.78;100.00
32131;BME280;18639;50.716;7.086;2023-07-31T05:06:33;99910.50;;;18.21;100.00
32131;BME280;18639;50.716;7.086;2023-07-31T05:08:59;99877.56;;;17.94;100.00
32131;BME280;18639;50.716;7.086;2023-07-31T05:11:24;99872.69;;;18.07;100.00
32131;BME280;18639;50.716;7.086;2023-07-31T05:13:49;99899.22;;;18.29;100.00
32131;BME280;18639;50.716;7.086;2023-07-31T05:16:14;99902.19;;;18.34;100.00
32131;BME280;18639;50.716;7.086;2023-07-31T05:18:40;99902.03;;;18.35;100.00
32131;BME280;18639;50.716;7.086;2023-07-31T05:21:05;99904.50;;;18.37;100.00
32131;BME280;18639;50.716;7.086;2023-07-31T05:23:30;99905.81;;;18.41;100.00
32131;BME280;18639;50.716;7.086;2023-07-31T05:26:03;99904.66;;;18.43;100.00
32131;BME280;18639;50.716;7.086;2023-07-31T05:28:29;99895.00;;;18.44;100.00
32131;BME280;18639;50.716;7.086;2023-07-31T05:31:01;99883.22;;;18.40;100.00
32131;BME280;18639;50.716;7.086;2023-07-31T05:33:27;99916.84;;;18.61;100.00
32131;BME280;18639;50.716;7.086;2023-07-31T05:35:52;99884.72;;;18.50;100.00
32131;BME280;18639;50.716;7.086;2023-07-31T05:38:18;99897.72;;;18.68;100.00
32131;BME280;18639;50.716;7.086;2023-07-31T05:40:43;99899.81;;;18.65;100.00
32131;BME280;18639;50.716;7.086;2023-07-31T05:43:08;99856.25;;;18.39;100.00
32131;BME280;18639;50.716;7.086;2023-07-31T05:45:34;99887.25;;;18.68;100.00
32131;BME280;18639;50.716;7.086;2023-07-31T05:47:59;99810.09;;;18.14;100.00
32131;BME280;18639;50.716;7.086;2023-07-31T05:50:25;99879.06;;;18.63;100.00
32131;BME280;18639;50.716;7.086;2023-07-31T05:52:50;99849.94;;;18.58;100.00
32131;BME280;18639;50.716;7.086;2023-07-31T05:55:16;99836.94;;;18.48;100.00
32131;BME280;18639;50.716;7.086;2023-07-31T05:57:42;99872.34;;;18.69;100.00
32131;BME280;18639;50.716;7.086;2023-07-31T06:00:08;99863.16;;;18.65;100.00
32131;BME280;18639;50.716;7.086;2023-07-31T06:02:33;99868.25;;;18.66;100.00
32131;BME280;18639;50.716;7.086;2023-07-31T06:05:02;99854.50;;;18.56;100.00
32131;BME280;18639;50.716;7.086;2023-07-31T06:07:27;99797.84;;;18.23;100.00
32131;BME280;18639;50.716;7.086;2023-07-31T06:09:52;99811.59;;;18.25;100.00
32131;BME280;18639;50.716;7.086;2023-07-31T06:12:20;99859.53;;;18.49;100.00
32131;BME280;18639;50.716;7.086;2023-07-31T06:14:45;99868.03;;;18.43;100.00
32131;BME280;18639;50.716;7.086;2023-07-31T06:17:10;99804.66;;;17.91;100.00
32131;BME280;18639;50.716;7.086;2023-07-31T06:19:36;99838.38;;;18.11;100.00
32131;BME280;18639;50.716;7.086;2023-07-31T06:22:01;99867.50;;;18.24;100.00
32131;BME280;18639;50.716;7.086;2023-07-31T06:24:28;99874.53;;;18.23;100.00
32131;BME280;18639;50.716;7.086;2023-07-31T06:26:53;99818.53;;;17.84;100.00
32131;BME280;18639;50.716;7.086;2023-07-31T06:29:18;99849.97;;;18.00;100.00
32131;BME280;18639;50.716;7.086;2023-07-31T06:31:44;99832.91;;;17.88;100.00
32131;BME280;18639;50.716;7.086;2023-07-31T06:34:09;99847.94;;;17.86;100.00
32131;BME280;18639;50.716;7.086;2023-07-31T06:36:35;99825.00;;;17.72;100.00
32131;BME280;18639;50.716;7.086;2023-07-31T06:39:00;99854.31;;;17.91;100.00
32131;BME280;18639;50.716;7.086;2023-07-31T06:41:25;99846.94;;;17.79;100.00
32131;BME280;18639;50.716;7.086;2023-07-31T06:43:50;99858.38;;;17.86;100.00
32131;BME280;18639;50.716;7.086;2023-07-31T06:46:16;99829.06;;;17.66;100.00
32131;BME280;18639;50.716;7.086;2023-07-31T06:48:41;99817.28;;;17.62;100.00
32131;BME280;18639;50.716;7.086;2023-07-31T06:51:07;99827.47;;;17.73;100.00
32131;BME280;18639;50.716;7.086;2023-07-31T06:53:32;99840.22;;;17.76;100.00
32131;BME280;18639;50.716;7.086;2023-07-31T06:55:57;99832.97;;;17.62;100.00
32131;BME280;18639;50.716;7.086;2023-07-31T06:58:22;99833.00;;;17.70;100.00
32131;BME280;18639;50.716;7.086;2023-07-31T07:00:48;99809.47;;;17.62;100.00
32131;BME280;18639;50.716;7.086;2023-07-31T07:03:14;99837.78;;;17.83;100.00
32131;BME280;18639;50.716;7.086;2023-07-31T07:05:40;99833.56;;;17.90;100.00
32131;BME280;18639;50.716;7.086;2023-07-31T07:08:05;99844.09;;;18.14;100.00
32131;BME280;18639;50.716;7.086;2023-07-31T07:10:30;99792.56;;;17.98;100.00
32131;BME280;18639;50.716;7.086;2023-07-31T07:12:56;99830.09;;;18.39;100.00
32131;BME280;18639;50.716;7.086;2023-07-31T07:15:21;99835.84;;;18.59;100.00
32131;BME280;18639;50.716;7.086;2023-07-31T07:17:46;99819.50;;;18.65;100.00
32131;BME280;18639;50.716;7.086;2023-07-31T07:20:12;99819.16;;;18.76;100.00
32131;BME280;18639;50.716;7.086;2023-07-31T07:22:37;99819.00;;;18.78;100.00
32131;BME280;18639;50.716;7.086;2023-07-31T07:25:04;99828.16;;;18.82;100.00
32131;BME280;18639;50.716;7.086;2023-07-31T07:27:29;99819.81;;;18.70;100.00
32131;BME280;18639;50.716;7.086;2023-07-31T07:29:54;99809.53;;;18.69;100.00
32131;BME280;18639;50.716;7.086;2023-07-31T07:32:20;99820.16;;;18.67;100.00
32131;BME280;18639;50.716;7.086;2023-07-31T07:34:47;99825.75;;;18.64;100.00
32131;BME280;18639;50.716;7.086;2023-07-31T07:37:13;99825.56;;;18.58;100.00
32131;BME280;18639;50.716;7.086;2023-07-31T07:39:38;99814.22;;;18.49;100.00
32131;BME280;18639;50.716;7.086;2023-07-31T07:42:03;99805.38;;;18.34;100.00
32131;BME280;18639;50.716;7.086;2023-07-31T07:44:29;99832.84;;;18.38;100.00
32131;BME280;18639;50.716;7.086;2023-07-31T07:46:54;99791.75;;;18.06;100.00
32131;BME280;18639;50.716;7.086;2023-07-31T07:49:19;99796.31;;;17.96;100.00
32131;BME280;18639;50.716;7.086;2023-07-31T07:51:47;99821.88;;;18.10;100.00
32131;BME280;18639;50.716;7.086;2023-07-31T07:54:12;99825.31;;;18.11;100.00
32131;BME280;18639;50.716;7.086;2023-07-31T07:56:38;99828.88;;;18.09;100.00
32131;BME280;18639;50.716;7.086;2023-07-31T07:59:04;99784.50;;;17.76;100.00
32131;BME280;18639;50.716;7.086;2023-07-31T08:01:29;99818.06;;;17.96;100.00
32131;BME280;18639;50.716;7.086;2023-07-31T08:03:55;99838.34;;;17.94;100.00
32131;BME280;18639;50.716;7.086;2023-07-31T08:06:20;99845.50;;;18.00;100.00
32131;BME280;18639;50.716;7.086;2023-07-31T08:08:46;99787.19;;;17.58;100.00
32131;BME280;18639;50.716;7.086;2023-07-31T08:11:11;99800.31;;;17.66;100.00
32131;BME280;18639;50.716;7.086;2023-07-31T08:13:36;99813.94;;;17.78;100.00
32131;BME280;18639;50.716;7.086;2023-07-31T08:16:03;99797.22;;;17.62;100.00
32131;BME280;18639;50.716;7.086;2023-07-31T08:18:29;99787.50;;;17.55;100.00
32131;BME280;18639;50.716;7.086;2023-07-31T08:20:54;99834.34;;;17.82;100.00
32131;BME280;18639;50.716;7.086;2023-07-31T08:23:19;99777.69;;;17.49;100.00
32131;BME280;18639;50.716;7.086;2023-07-31T08:25:44;99820.13;;;17.85;100.00
32131;BME280;18639;50.716;7.086;2023-07-31T08:28:10;99837.66;;;17.92;100.00
32131;BME280;18639;50.716;7.086;2023-07-31T08:30:35;99832.44;;;17.92;100.00
32131;BME280;18639;50.716;7.086;2023-07-31T08:33:00;99769.88;;;17.57;100.00
32131;BME280;18639;50.716;7.086;2023-07-31T08:35:26;99818.06;;;17.96;100.00
32131;BME280;18639;50.716;7.086;2023-07-31T08:37:53;99817.25;;;17.96;100.00
32131;BME280;18639;50.716;7.086;2023-07-31T08:40:18;99799.06;;;17.86;100.00
32131;BME280;18639;50.716;7.086;2023-07-31T08:42:48;99790.75;;;17.83;100.00
32131;BME280;18639;50.716;7.086;2023-07-31T08:45:15;99790.94;;;17.89;100.00
32131;BME280;18639;50.716;7.086;2023-07-31T08:47:48;99749.69;;;17.67;100.00
32131;BME280;18639;50.716;7.086;2023-07-31T08:50:15;99797.13;;;17.96;100.00
32131;BME280;18639;50.716;7.086;2023-07-31T08:52:41;99782.56;;;17.86;100.00
32131;BME280;18639;50.716;7.086;2023-07-31T08:55:07;99789.63;;;17.93;100.00
32131;BME280;18639;50.716;7.086;2023-07-31T08:57:35;99790.44;;;17.94;100.00
32131;BME280;18639;50.716;7.086;2023-07-31T09:00:02;99783.38;;;17.86;100.00
32131;BME280;18639;50.716;7.086;2023-07-31T09:02:34;99792.53;;;17.90;100.00
32131;BME280;18639;50.716;7.086;2023-07-31T09:05:00;99794.81;;;17.85;100.00
32131;BME280;18639;50.716;7.086;2023-07-31T09:07:26;99785.81;;;17.80;100.00
32131;BME280;18639;50.716;7.086;2023-07-31T09:09:52;99785.81;;;17.80;100.00
32131;BME280;18639;50.716;7.086;2023-07-31T09:12:18;99779.44;;;17.74;100.00
32131;BME280;18639;50.716;7.086;2023-07-31T09:14:45;99781.75;;;17.77;100.00
32131;BME280;18639;50.716;7.086;2023-07-31T09:17:10;99782.56;;;17.78;100.00
32131;BME280;18639;50.716;7.086;2023-07-31T09:19:36;99801.38;;;17.89;100.00
32131;BME280;18639;50.716;7.086;2023-07-31T09:22:05;99793.88;;;17.94;100.00
32131;BME280;18639;50.716;7.086;2023-07-31T09:24:32;99799.59;;;17.98;100.00
32131;BME280;18639;50.716;7.086;2023-07-31T09:26:59;99767.69;;;17.78;100.00
32131;BME280;18639;50.716;7.086;2023-07-31T09:29:26;99797.31;;;18.03;100.00
32131;BME280;18639;50.716;7.086;2023-07-31T09:31:53;99796.19;;;18.05;100.00
32131;BME280;18639;50.716;7.086;2023-07-31T09:34:19;99789.47;;;18.03;100.00
32131;BME280;18639;50.716;7.086;2023-07-31T09:36:49;99756.91;;;17.81;100.00
32131;BME280;18639;50.716;7.086;2023-07-31T09:39:17;99772.16;;;17.94;100.00
32131;BME280;18639;50.716;7.086;2023-07-31T09:41:46;99767.06;;;18.00;100.00
32131;BME280;18639;50.716;7.086;2023-07-31T09:44:12;99746.63;;;17.88;100.00
32131;BME280;18639;50.716;7.086;2023-07-31T09:46:37;99772.00;;;18.03;100.00
32131;BME280;18639;50.716;7.086;2023-07-31T09:49:09;99778.88;;;18.13;100.00
32131;BME280;18639;50.716;7.086;2023-07-31T09:51:35;99760.56;;;18.04;100.00
32131;BME280;18639;50.716;7.086;2023-07-31T09:54:16;99765.94;;;18.11;100.00
32131;BME280;18639;50.716;7.086;2023-07-31T09:56:48;99766.13;;;18.09;100.00
32131;BME280;18639;50.716;7.086;2023-07-31T09:59:16;99760.25;;;18.16;100.00
32131;BME280;18639;50.716;7.086;2023-07-31T10:01:43;99717.72;;;17.97;100.00
32131;BME280;18639;50.716;7.086;2023-07-31T10:04:10;99757.13;;;18.28;100.00
32131;BME280;18639;50.716;7.086;2023-07-31T10:06:36;99717.25;;;18.18;100.00
32131;BME280;18639;50.716;7.086;2023-07-31T10:09:08;99731.97;;;18.43;100.00
32131;BME280;18639;50.716;7.086;2023-07-31T10:11:38;99749.50;;;18.67;100.00
32131;BME280;18639;50.716;7.086;2023-07-31T10:14:07;99739.00;;;18.83;100.00
32131;BME280;18639;50.716;7.086;2023-07-31T10:16:33;99727.84;;;18.89;100.00
32131;BME280;18639;50.716;7.086;2023-07-31T10:19:00;99733.19;;;19.12;100.00
32131;BME280;18639;50.716;7.086;2023-07-31T10:21:26;99732.81;;;19.23;100.00
32131;BME280;18639;50.716;7.086;2023-07-31T10:23:53;99710.09;;;19.08;100.00
32131;BME280;18639;50.716;7.086;2023-07-31T10:26:18;99715.63;;;19.21;100.00
32131;BME280;18639;50.716;7.086;2023-07-31T10:28:46;99709.03;;;19.33;100.00
32131;BME280;18639;50.716;7.086;2023-07-31T10:31:12;99715.44;;;19.69;100.00
32131;BME280;18639;50.716;7.086;2023-07-31T10:33:38;99723.78;;;19.96;100.00
32131;BME280;18639;50.716;7.086;2023-07-31T10:36:18;99712.19;;;20.13;100.00
32131;BME280;18639;50.716;7.086;2023-07-31T10:38:44;99686.50;;;20.08;100.00
32131;BME280;18639;50.716;7.086;2023-07-31T10:41:10;99693.03;;;20.27;100.00
32131;BME280;18639;50.716;7.086;2023-07-31T10:43:39;99697.66;;;20.25;100.00
32131;BME280;18639;50.716;7.086;2023-07-31T10:46:13;99710.09;;;20.31;100.00
32131;BME280;18639;50.716;7.086;2023-07-31T10:48:40;99713.22;;;20.27;100.00
32131;BME280;18639;50.716;7.086;2023-07-31T10:51:12;99674.16;;;20.09;100.00
32131;BME280;18639;50.716;7.086;2023-07-31T10:53:39;99705.06;;;20.22;100.00
32131;BME280;18639;50.716;7.086;2023-07-31T10:56:08;99683.38;;;20.05;100.00
32131;BME280;18639;50.716;7.086;2023-07-31T10:58:37;99719.94;;;20.29;100.00
32131;BME280;18639;50.716;7.086;2023-07-31T11:01:04;99706.94;;;20.13;100.00
32131;BME280;18639;50.716;7.086;2023-07-31T11:03:45;99727.56;;;20.16;100.00
32131;BME280;18639;50.716;7.086;2023-07-31T11:06:11;99695.50;;;20.06;100.00
32131;BME280;18639;50.716;7.086;2023-07-31T11:08:50;99703.44;;;20.21;100.00
32131;BME280;18639;50.716;7.086;2023-07-31T11:11:17;99716.50;;;20.29;100.00
32131;BME280;18639;50.716;7.086;2023-07-31T11:13:46;99722.63;;;20.44;100.00
32131;BME280;18639;50.716;7.086;2023-07-31T11:16:15;99725.97;;;20.52;100.00
32131;BME280;18639;50.716;7.086;2023-07-31T11:18:45;99718.94;;;20.53;100.00
32131;BME280;18639;50.716;7.086;2023-07-31T11:21:16;99698.19;;;20.43;100.00
32131;BME280;18639;50.716;7.086;2023-07-31T11:23:46;99716.03;;;20.48;100.00
32131;BME280;18639;50.716;7.086;2023-07-31T11:26:12;99678.72;;;20.15;100.00
32131;BME280;18639;50.716;7.086;2023-07-31T11:28:37;99683.06;;;20.08;100.00
32131;BME280;18639;50.716;7.086;2023-07-31T11:31:03;99719.66;;;20.24;100.00
32131;BME280;18639;50.716;7.086;2023-07-31T11:33:29;99744.97;;;20.40;100.00
32131;BME280;18639;50.716;7.086;2023-07-31T11:35:54;99753.41;;;20.27;100.00
32131;BME280;18639;50.716;7.086;2023-07-31T11:38:24;99751.34;;;20.14;100.00
32131;BME280;18639;50.716;7.086;2023-07-31T11:40:51;99691.28;;;19.51;100.00
32131;BME280;18639;50.716;7.086;2023-07-31T11:43:18;99735.06;;;19.73;100.00
32131;BME280;18639;50.716;7.086;2023-07-31T11:45:56;99721.31;;;19.71;100.00
32131;BME280;18639;50.716;7.086;2023-07-31T11:48:27;99704.25;;;19.75;100.00
32131;BME280;18639;50.716;7.086;2023-07-31T11:50:56;99700.13;;;19.81;100.00
32131;BME280;18639;50.716;7.086;2023-07-31T11:53:35;99695.69;;;20.04;100.00
32131;BME280;18639;50.716;7.086;2023-07-31T11:56:05;99703.66;;;20.11;100.00
32131;BME280;18639;50.716;7.086;2023-07-31T11:58:42;99682.81;;;20.17;100.00
32131;BME280;18639;50.716;7.086;2023-07-31T12:01:11;99662.06;;;20.08;100.00
32131;BME280;18639;50.716;7.086;2023-07-31T12:03:55;99590.06;;;19.88;100.00
32131;BME280;18639;50.716;7.086;2023-07-31T12:06:42;99620.97;;;20.15;100.00
32131;BME280;18639;50.716;7.086;2023-07-31T12:09:14;99651.22;;;20.48;100.00
32131;BME280;18639;50.716;7.086;2023-07-31T12:11:47;99612.81;;;20.47;100.00
32131;BME280;18639;50.716;7.086;2023-07-31T12:14:28;99629.03;;;20.80;100.00
32131;BME280;18639;50.716;7.086;2023-07-31T12:19:58;99629.91;;;21.31;100.00
32131;BME280;18639;50.716;7.086;2023-07-31T12:22:43;99680.91;;;21.73;100.00
32131;BME280;18639;50.716;7.086;2023-07-31T12:25:15;99663.34;;;21.80;100.00
32131;BME280;18639;50.716;7.086;2023-07-31T12:27:44;99644.69;;;21.75;100.00
32131;BME280;18639;50.716;7.086;2023-07-31T12:30:37;99625.91;;;21.78;100.00
32131;BME280;18639;50.716;7.086;2023-07-31T12:33:18;99598.13;;;21.69;100.00
32131;BME280;18639;50.716;7.086;2023-07-31T12:35:51;99647.56;;;21.95;100.00
32131;BME280;18639;50.716;7.086;2023-07-31T12:38:37;99679.47;;;22.13;100.00
32131;BME280;18639;50.716;7.086;2023-07-31T12:44:15;99585.72;;;21.63;100.00
32131;BME280;18639;50.716;7.086;2023-07-31T12:46:40;99631.03;;;21.86;100.00
32131;BME280;18639;50.716;7.086;2023-07-31T12:49:09;99677.59;;;22.07;100.00
32131;BME280;18639;50.716;7.086;2023-07-31T12:51:36;99608.50;;;21.56;100.00
32131;BME280;18639;50.716;7.086;2023-07-31T12:54:02;99651.91;;;21.66;100.00
32131;BME280;18639;50.716;7.086;2023-07-31T12:56:35;99615.38;;;21.35;100.00
32131;BME280;18639;50.716;7.086;2023-07-31T12:59:01;99617.25;;;21.20;100.00